Santa Cruz, CA

6:54 PM PST on February 27, 2015 (GMT -0800)
30th Ave/Pleasure Point | Change Station
CLOSE
Current Station
Personal Weather Station
Location: Santa Cruz, CA
Elevation: 36 ft
Nearby Weather Stations

Elev 36 ft 36.96 °N, 121.97 °W | Updated 3 seconds ago

Mostly Cloudy
Mostly Cloudy
55.3 °F
Feels Like 55.3 °F
N
1.0
Wind Variable Wind from West
Gusts 8.0 mph

Today
High -- | Low -- °F
--% Chance of Precip.
Yesterday
High -- | Low -- °F
Precip. -- in
6:41 AM 6:00 PM
Waxing Gibbous, 73% visible
Pressure 29.80 in
Visibility 10.0 miles
Clouds Mostly Cloudy 3900 ft
Dew Point 45 °F
Humidity 68%
Rainfall 0.00 in
Snow Depth Not available.
UV 0 out of 12
Pollen 7.80 out of 12
Air Quality Not available.
Flu Activity Not available.
METAR KWVI 280153Z AUTO 25006G15KT 10SM BKN039 14/07 A2980 RMK AO2 SLP089 T01390067

More Conditions Fewer Conditions

Pressure 29.80 in
Visibility 10.0 miles
Clouds Mostly Cloudy 3900 ft
Dew Point 45 °F
Humidity 68%
Rainfall 0.00 in
Snow Depth Not available.
UV 0 out of 12
Pollen 7.80 out of 12
Air Quality Not available.
Flu Activity Not available.
METAR KWVI 280153Z AUTO 25006G15KT 10SM BKN039 14/07 A2980 RMK AO2 SLP089 T01390067

More Conditions Fewer Conditions

10-Day Weather Forecast

Almanac

Astronomy

Feb. 27, 2015 Rise Set
Actual Time
Civil Twilight
Nautical Twilight
Astronomical Twilight
Moon
Length of Visible Light
Length of Day
Tomorrow will be .
, % of the Moon is Illuminated

Today's Extremes

State Highs State Lows

Community

WunderPhotos

Upload Photos

1,800,943 photos uploaded!

WunderBlogs® & News

Nearby

Air Quality

  Air Quality AQ Index Pollutant
Not available.

Snow Depth

Station Depth Elevation

Earthquake Activity

City Distance Mag. Time & Date
Minimum magnitude displayed is 2.5.

Coastal Water Temperatures

Place Temperature

Nearby Weather Stations